KBOW/BOW METAR and TAF weather

Enter ICAO airport designator
Station Type Date Time Source
KBOW METAR 2021/09/28 16:50 UTC NOAA

KBOW 281650Z 04007KT 10SM SCT060 30/15 A3006


Station Type Date Time Source
KBOW Decoded METAR 2021/09/28 16:50 UTC NOAA

Bartow Municipal, FL, United States (KBOW) 27-57N 081-47W
Sep 28, 2021 - 12:50 PM EDT / 2021.09.28 1650 UTC
Wind: from the NE (040 degrees) at 8 MPH (7 KT):0
Visibility: 10 mile(s):0
Sky conditions: partly cloudy
Temperature: 86 F (30 C)
Dew Point: 59 F (15 C)
Relative Humidity: 40%
Pressure (altimeter): 30.06 in. Hg (1017 hPa)
ob: KBOW 281650Z 04007KT 10SM SCT060 30/15 A3006
cycle: 17

Station Type Date Time Source
KBOW TAF UTC NOAA

Error!

Example: see airport list